sensor_id;sensor_type;location;lat;lon;timestamp;temperature;humidity
77693;SHT31;66984;47.404;18.836;2023-02-08T00:00:27;-1.54;65.42
77693;SHT31;66984;47.404;18.836;2023-02-08T00:01:30;-1.55;65.85
77693;SHT31;66984;47.404;18.836;2023-02-08T00:02:32;-1.54;66.02
77693;SHT31;66984;47.404;18.836;2023-02-08T00:03:35;-1.55;65.86
77693;SHT31;66984;47.404;18.836;2023-02-08T00:04:38;-1.52;65.80
77693;SHT31;66984;47.404;18.836;2023-02-08T00:05:41;-1.55;66.01
77693;SHT31;66984;47.404;18.836;2023-02-08T00:06:43;-1.52;66.24
77693;SHT31;66984;47.404;18.836;2023-02-08T00:07:46;-1.54;66.57
77693;SHT31;66984;47.404;18.836;2023-02-08T00:08:49;-1.52;66.51
77693;SHT31;66984;47.404;18.836;2023-02-08T00:09:51;-1.54;66.29
77693;SHT31;66984;47.404;18.836;2023-02-08T00:10:54;-1.51;66.50
77693;SHT31;66984;47.404;18.836;2023-02-08T00:11:57;-1.55;66.30
77693;SHT31;66984;47.404;18.836;2023-02-08T00:12:59;-1.54;66.37
77693;SHT31;66984;47.404;18.836;2023-02-08T00:14:02;-1.51;66.31
77693;SHT31;66984;47.404;18.836;2023-02-08T00:15:05;-1.47;66.63
77693;SHT31;66984;47.404;18.836;2023-02-08T00:16:08;-1.50;66.29
77693;SHT31;66984;47.404;18.836;2023-02-08T00:17:11;-1.45;66.08
77693;SHT31;66984;47.404;18.836;2023-02-08T00:18:14;-1.48;66.24
77693;SHT31;66984;47.404;18.836;2023-02-08T00:19:17;-1.42;66.28
77693;SHT31;66984;47.404;18.836;2023-02-08T00:20:20;-1.45;66.41
77693;SHT31;66984;47.404;18.836;2023-02-08T00:21:22;-1.44;66.21
77693;SHT31;66984;47.404;18.836;2023-02-08T00:22:25;-1.44;66.49
77693;SHT31;66984;47.404;18.836;2023-02-08T00:23:28;-1.41;66.31
77693;SHT31;66984;47.404;18.836;2023-02-08T00:24:31;-1.38;66.74
77693;SHT31;66984;47.404;18.836;2023-02-08T00:25:34;-1.41;66.00
77693;SHT31;66984;47.404;18.836;2023-02-08T00:26:37;-1.42;65.69
77693;SHT31;66984;47.404;18.836;2023-02-08T00:27:40;-1.42;65.96
77693;SHT31;66984;47.404;18.836;2023-02-08T00:28:42;-1.45;65.85
77693;SHT31;66984;47.404;18.836;2023-02-08T00:29:45;-1.47;65.79
77693;SHT31;66984;47.404;18.836;2023-02-08T00:30:48;-1.45;65.91
77693;SHT31;66984;47.404;18.836;2023-02-08T00:31:51;-1.47;65.90
77693;SHT31;66984;47.404;18.836;2023-02-08T00:32:53;-1.63;66.00
77693;SHT31;66984;47.404;18.836;2023-02-08T00:33:56;-1.63;66.44
77693;SHT31;66984;47.404;18.836;2023-02-08T00:34:59;-1.69;66.31
77693;SHT31;66984;47.404;18.836;2023-02-08T00:36:04;-1.75;66.78
77693;SHT31;66984;47.404;18.836;2023-02-08T00:37:07;-1.75;66.94
77693;SHT31;66984;47.404;18.836;2023-02-08T00:38:10;-1.75;66.98
77693;SHT31;66984;47.404;18.836;2023-02-08T00:39:12;-1.79;66.91
77693;SHT31;66984;47.404;18.836;2023-02-08T00:40:15;-1.75;67.08
77693;SHT31;66984;47.404;18.836;2023-02-08T00:41:18;-1.66;67.03
77693;SHT31;66984;47.404;18.836;2023-02-08T00:42:21;-1.68;67.01
77693;SHT31;66984;47.404;18.836;2023-02-08T00:43:24;-1.69;66.81
77693;SHT31;66984;47.404;18.836;2023-02-08T00:44:27;-1.68;66.91
77693;SHT31;66984;47.404;18.836;2023-02-08T00:45:31;-1.71;66.93
77693;SHT31;66984;47.404;18.836;2023-02-08T00:46:34;-1.71;66.64
77693;SHT31;66984;47.404;18.836;2023-02-08T00:47:37;-1.72;66.81
77693;SHT31;66984;47.404;18.836;2023-02-08T00:48:39;-1.71;66.84
77693;SHT31;66984;47.404;18.836;2023-02-08T00:49:42;-1.72;66.79
77693;SHT31;66984;47.404;18.836;2023-02-08T00:52:00;-1.81;67.03
77693;SHT31;66984;47.404;18.836;2023-02-08T00:53:03;-1.78;66.91
77693;SHT31;66984;47.404;18.836;2023-02-08T00:54:06;-1.75;67.07
77693;SHT31;66984;47.404;18.836;2023-02-08T00:55:08;-1.75;67.13
77693;SHT31;66984;47.404;18.836;2023-02-08T00:56:12;-1.72;67.06
77693;SHT31;66984;47.404;18.836;2023-02-08T00:57:15;-1.69;67.28
77693;SHT31;66984;47.404;18.836;2023-02-08T00:58:18;-1.65;67.18
77693;SHT31;66984;47.404;18.836;2023-02-08T00:59:21;-1.62;67.02
77693;SHT31;66984;47.404;18.836;2023-02-08T01:00:24;-1.65;66.94
77693;SHT31;66984;47.404;18.836;2023-02-08T01:01:26;-1.63;67.12
77693;SHT31;66984;47.404;18.836;2023-02-08T01:02:29;-1.58;67.17
77693;SHT31;66984;47.404;18.836;2023-02-08T01:03:33;-1.61;66.81
77693;SHT31;66984;47.404;18.836;2023-02-08T01:04:36;-1.55;66.77
77693;SHT31;66984;47.404;18.836;2023-02-08T01:05:39;-1.59;66.83
77693;SHT31;66984;47.404;18.836;2023-02-08T01:06:42;-1.55;66.65
77693;SHT31;66984;47.404;18.836;2023-02-08T01:07:44;-1.51;66.94
77693;SHT31;66984;47.404;18.836;2023-02-08T01:08:47;-1.50;66.96
77693;SHT31;66984;47.404;18.836;2023-02-08T01:09:50;-1.45;66.55
77693;SHT31;66984;47.404;18.836;2023-02-08T01:11:00;-1.44;66.41
77693;SHT31;66984;47.404;18.836;2023-02-08T01:12:03;-1.37;66.83
77693;SHT31;66984;47.404;18.836;2023-02-08T01:13:05;-1.37;66.60
77693;SHT31;66984;47.404;18.836;2023-02-08T01:14:09;-1.35;66.26
77693;SHT31;66984;47.404;18.836;2023-02-08T01:15:11;-1.34;66.14
77693;SHT31;66984;47.404;18.836;2023-02-08T01:16:20;-1.31;66.23
77693;SHT31;66984;47.404;18.836;2023-02-08T01:17:23;-1.31;66.21
77693;SHT31;66984;47.404;18.836;2023-02-08T01:18:25;-1.31;65.94
77693;SHT31;66984;47.404;18.836;2023-02-08T01:19:28;-1.34;66.19
77693;SHT31;66984;47.404;18.836;2023-02-08T01:20:34;-1.30;66.35
77693;SHT31;66984;47.404;18.836;2023-02-08T01:21:39;-1.37;66.11
77693;SHT31;66984;47.404;18.836;2023-02-08T01:22:42;-1.42;66.23
77693;SHT31;66984;47.404;18.836;2023-02-08T01:23:45;-1.41;66.33
77693;SHT31;66984;47.404;18.836;2023-02-08T01:24:48;-1.44;66.40
77693;SHT31;66984;47.404;18.836;2023-02-08T01:25:50;-1.47;66.61
77693;SHT31;66984;47.404;18.836;2023-02-08T01:26:53;-1.44;67.02
77693;SHT31;66984;47.404;18.836;2023-02-08T01:27:55;-1.42;67.01
77693;SHT31;66984;47.404;18.836;2023-02-08T01:28:58;-1.41;67.25
77693;SHT31;66984;47.404;18.836;2023-02-08T01:30:01;-1.38;67.40
77693;SHT31;66984;47.404;18.836;2023-02-08T01:31:10;-1.37;67.35
77693;SHT31;66984;47.404;18.836;2023-02-08T01:32:13;-1.30;67.43
77693;SHT31;66984;47.404;18.836;2023-02-08T01:33:16;-1.28;67.25
77693;SHT31;66984;47.404;18.836;2023-02-08T01:34:18;-1.27;67.18
77693;SHT31;66984;47.404;18.836;2023-02-08T01:35:21;-1.27;67.16
77693;SHT31;66984;47.404;18.836;2023-02-08T01:36:25;-1.23;66.92
77693;SHT31;66984;47.404;18.836;2023-02-08T01:37:28;-1.27;66.85
77693;SHT31;66984;47.404;18.836;2023-02-08T01:38:31;-1.27;67.14
77693;SHT31;66984;47.404;18.836;2023-02-08T01:39:34;-1.24;67.23
77693;SHT31;66984;47.404;18.836;2023-02-08T01:40:36;-1.17;67.50
77693;SHT31;66984;47.404;18.836;2023-02-08T01:41:42;-1.14;67.33
77693;SHT31;66984;47.404;18.836;2023-02-08T01:42:45;-1.15;66.69
77693;SHT31;66984;47.404;18.836;2023-02-08T01:46:17;-1.14;66.68
77693;SHT31;66984;47.404;18.836;2023-02-08T01:47:20;-1.17;66.69
77693;SHT31;66984;47.404;18.836;2023-02-08T01:48:30;-1.13;66.92
77693;SHT31;66984;47.404;18.836;2023-02-08T01:49:35;-1.11;67.05
77693;SHT31;66984;47.404;18.836;2023-02-08T01:53:04;-1.13;66.79
77693;SHT31;66984;47.404;18.836;2023-02-08T01:54:09;-1.14;66.63
77693;SHT31;66984;47.404;18.836;2023-02-08T01:55:22;-1.11;66.67
77693;SHT31;66984;47.404;18.836;2023-02-08T01:56:30;-1.10;66.59
77693;SHT31;66984;47.404;18.836;2023-02-08T01:57:34;-1.08;66.84
77693;SHT31;66984;47.404;18.836;2023-02-08T01:58:42;-1.11;66.69
77693;SHT31;66984;47.404;18.836;2023-02-08T02:00:06;-1.14;66.68
77693;SHT31;66984;47.404;18.836;2023-02-08T02:01:10;-1.20;66.81
77693;SHT31;66984;47.404;18.836;2023-02-08T02:02:16;-1.20;66.84
77693;SHT31;66984;47.404;18.836;2023-02-08T02:03:22;-1.18;66.88
77693;SHT31;66984;47.404;18.836;2023-02-08T02:04:26;-1.17;67.05
77693;SHT31;66984;47.404;18.836;2023-02-08T02:05:34;-1.08;67.32
77693;SHT31;66984;47.404;18.836;2023-02-08T02:06:43;-1.04;67.23
77693;SHT31;66984;47.404;18.836;2023-02-08T02:07:47;-0.99;67.27
77693;SHT31;66984;47.404;18.836;2023-02-08T02:10:15;-0.94;67.24
77693;SHT31;66984;47.404;18.836;2023-02-08T02:11:19;-0.90;67.03
77693;SHT31;66984;47.404;18.836;2023-02-08T02:12:22;-0.86;67.00
77693;SHT31;66984;47.404;18.836;2023-02-08T02:13:26;-0.83;67.04
77693;SHT31;66984;47.404;18.836;2023-02-08T02:14:29;-0.82;66.82
77693;SHT31;66984;47.404;18.836;2023-02-08T02:15:32;-0.82;66.58
77693;SHT31;66984;47.404;18.836;2023-02-08T02:16:35;-0.77;66.97
77693;SHT31;66984;47.404;18.836;2023-02-08T02:17:39;-0.75;67.25
77693;SHT31;66984;47.404;18.836;2023-02-08T02:18:42;-0.72;67.02
77693;SHT31;66984;47.404;18.836;2023-02-08T02:21:23;-0.66;66.91
77693;SHT31;66984;47.404;18.836;2023-02-08T02:27:24;-0.61;66.20
77693;SHT31;66984;47.404;18.836;2023-02-08T02:33:56;-0.59;66.74
77693;SHT31;66984;47.404;18.836;2023-02-08T02:35:15;-0.62;66.46
77693;SHT31;66984;47.404;18.836;2023-02-08T02:36:39;-0.62;66.28
77693;SHT31;66984;47.404;18.836;2023-02-08T02:38:11;-0.68;66.34
77693;SHT31;66984;47.404;18.836;2023-02-08T02:39:37;-0.75;66.69
77693;SHT31;66984;47.404;18.836;2023-02-08T02:42:28;-0.73;67.22
77693;SHT31;66984;47.404;18.836;2023-02-08T02:43:56;-0.73;66.87
77693;SHT31;66984;47.404;18.836;2023-02-08T02:45:31;-0.70;66.81
77693;SHT31;66984;47.404;18.836;2023-02-08T02:46:41;-0.68;66.96
77693;SHT31;66984;47.404;18.836;2023-02-08T02:47:51;-0.68;67.07
77693;SHT31;66984;47.404;18.836;2023-02-08T02:49:07;-0.63;66.95
77693;SHT31;66984;47.404;18.836;2023-02-08T02:50:22;-0.61;66.98
77693;SHT31;66984;47.404;18.836;2023-02-08T02:52:07;-0.59;66.92
77693;SHT31;66984;47.404;18.836;2023-02-08T02:53:23;-0.55;66.77
77693;SHT31;66984;47.404;18.836;2023-02-08T02:54:52;-0.55;66.92
77693;SHT31;66984;47.404;18.836;2023-02-08T02:56:18;-0.54;66.80
77693;SHT31;66984;47.404;18.836;2023-02-08T02:57:26;-0.54;66.72
77693;SHT31;66984;47.404;18.836;2023-02-08T02:58:30;-0.54;66.71
77693;SHT31;66984;47.404;18.836;2023-02-08T02:59:36;-0.51;66.80
77693;SHT31;66984;47.404;18.836;2023-02-08T03:00:39;-0.51;66.67
77693;SHT31;66984;47.404;18.836;2023-02-08T03:01:44;-0.49;66.60
77693;SHT31;66984;47.404;18.836;2023-02-08T03:02:47;-0.54;66.57
77693;SHT31;66984;47.404;18.836;2023-02-08T03:03:52;-0.52;66.69
77693;SHT31;66984;47.404;18.836;2023-02-08T03:04:56;-0.51;66.62
77693;SHT31;66984;47.404;18.836;2023-02-08T03:06:21;-0.45;66.63
77693;SHT31;66984;47.404;18.836;2023-02-08T03:11:21;-0.41;66.55
77693;SHT31;66984;47.404;18.836;2023-02-08T03:21:10;-0.25;66.18
77693;SHT31;66984;47.404;18.836;2023-02-08T03:22:18;-0.21;65.89
77693;SHT31;66984;47.404;18.836;2023-02-08T03:25:06;-0.24;65.14
77693;SHT31;66984;47.404;18.836;2023-02-08T03:28:16;-0.25;65.51
77693;SHT31;66984;47.404;18.836;2023-02-08T03:30:26;-0.19;65.58
77693;SHT31;66984;47.404;18.836;2023-02-08T03:32:06;-0.19;65.62
77693;SHT31;66984;47.404;18.836;2023-02-08T03:33:14;-0.13;65.66
77693;SHT31;66984;47.404;18.836;2023-02-08T03:34:32;-0.10;65.66
77693;SHT31;66984;47.404;18.836;2023-02-08T03:35:43;-0.08;65.38
77693;SHT31;66984;47.404;18.836;2023-02-08T03:36:52;-0.10;65.17
77693;SHT31;66984;47.404;18.836;2023-02-08T03:38:05;-0.10;65.14
77693;SHT31;66984;47.404;18.836;2023-02-08T03:39:12;-0.05;65.15
77693;SHT31;66984;47.404;18.836;2023-02-08T03:40:38;-0.01;65.33
77693;SHT31;66984;47.404;18.836;2023-02-08T03:41:44;0.00;65.19
77693;SHT31;66984;47.404;18.836;2023-02-08T03:42:49;0.06;65.25
77693;SHT31;66984;47.404;18.836;2023-02-08T03:44:05;0.06;65.10
77693;SHT31;66984;47.404;18.836;2023-02-08T03:45:15;0.07;65.09
77693;SHT31;66984;47.404;18.836;2023-02-08T03:46:48;0.10;64.83
77693;SHT31;66984;47.404;18.836;2023-02-08T03:47:53;0.09;64.67
77693;SHT31;66984;47.404;18.836;2023-02-08T03:49:07;0.13;64.73
77693;SHT31;66984;47.404;18.836;2023-02-08T03:50:14;0.14;64.45
77693;SHT31;66984;47.404;18.836;2023-02-08T03:51:20;0.14;64.48
77693;SHT31;66984;47.404;18.836;2023-02-08T03:52:25;0.14;64.53
77693;SHT31;66984;47.404;18.836;2023-02-08T03:53:30;0.18;64.74
77693;SHT31;66984;47.404;18.836;2023-02-08T03:54:51;0.18;64.69
77693;SHT31;66984;47.404;18.836;2023-02-08T03:55:58;0.20;64.69
77693;SHT31;66984;47.404;18.836;2023-02-08T03:57:22;0.18;64.57
77693;SHT31;66984;47.404;18.836;2023-02-08T03:58:35;0.20;64.33
77693;SHT31;66984;47.404;18.836;2023-02-08T03:59:42;0.24;64.00
77693;SHT31;66984;47.404;18.836;2023-02-08T04:00:52;0.25;63.85
77693;SHT31;66984;47.404;18.836;2023-02-08T04:01:58;0.18;63.80
77693;SHT31;66984;47.404;18.836;2023-02-08T04:03:09;0.20;63.90
77693;SHT31;66984;47.404;18.836;2023-02-08T04:04:15;0.20;63.83
77693;SHT31;66984;47.404;18.836;2023-02-08T04:05:21;0.21;64.07
77693;SHT31;66984;47.404;18.836;2023-02-08T04:06:25;0.20;64.32
77693;SHT31;66984;47.404;18.836;2023-02-08T04:07:29;0.20;64.29
77693;SHT31;66984;47.404;18.836;2023-02-08T04:08:31;0.20;64.15
77693;SHT31;66984;47.404;18.836;2023-02-08T04:09:34;0.20;63.98
77693;SHT31;66984;47.404;18.836;2023-02-08T04:10:39;0.20;64.12
77693;SHT31;66984;47.404;18.836;2023-02-08T04:11:42;0.21;64.33
77693;SHT31;66984;47.404;18.836;2023-02-08T04:12:46;0.23;64.50
77693;SHT31;66984;47.404;18.836;2023-02-08T04:13:49;0.21;64.66
77693;SHT31;66984;47.404;18.836;2023-02-08T04:14:52;0.23;64.72
77693;SHT31;66984;47.404;18.836;2023-02-08T04:15:54;0.21;64.23
77693;SHT31;66984;47.404;18.836;2023-02-08T04:16:57;0.25;64.28
77693;SHT31;66984;47.404;18.836;2023-02-08T04:18:00;0.25;64.08
77693;SHT31;66984;47.404;18.836;2023-02-08T04:19:03;0.30;63.80
77693;SHT31;66984;47.404;18.836;2023-02-08T04:20:06;0.28;63.79
77693;SHT31;66984;47.404;18.836;2023-02-08T04:21:09;0.27;63.68
77693;SHT31;66984;47.404;18.836;2023-02-08T04:22:11;0.28;63.85
77693;SHT31;66984;47.404;18.836;2023-02-08T04:23:14;0.27;63.66
77693;SHT31;66984;47.404;18.836;2023-02-08T04:24:17;0.28;63.90
77693;SHT31;66984;47.404;18.836;2023-02-08T04:25:19;0.28;64.02
77693;SHT31;66984;47.404;18.836;2023-02-08T04:26:22;0.28;63.94
77693;SHT31;66984;47.404;18.836;2023-02-08T04:27:25;0.24;63.65
77693;SHT31;66984;47.404;18.836;2023-02-08T04:28:28;0.28;63.66
77693;SHT31;66984;47.404;18.836;2023-02-08T04:29:30;0.25;63.86
77693;SHT31;66984;47.404;18.836;2023-02-08T04:30:33;0.20;63.68
77693;SHT31;66984;47.404;18.836;2023-02-08T04:31:36;0.20;63.66
77693;SHT31;66984;47.404;18.836;2023-02-08T04:32:38;0.14;63.80
77693;SHT31;66984;47.404;18.836;2023-02-08T04:33:41;0.16;63.96
77693;SHT31;66984;47.404;18.836;2023-02-08T04:34:44;0.17;64.27
77693;SHT31;66984;47.404;18.836;2023-02-08T04:35:46;0.20;64.30
77693;SHT31;66984;47.404;18.836;2023-02-08T04:36:49;0.25;64.47
77693;SHT31;66984;47.404;18.836;2023-02-08T04:37:52;0.23;64.54
77693;SHT31;66984;47.404;18.836;2023-02-08T04:38:54;0.25;64.49
77693;SHT31;66984;47.404;18.836;2023-02-08T04:39:57;0.25;64.47
77693;SHT31;66984;47.404;18.836;2023-02-08T04:41:00;0.28;64.40
77693;SHT31;66984;47.404;18.836;2023-02-08T04:42:03;0.33;64.56
77693;SHT31;66984;47.404;18.836;2023-02-08T04:43:05;0.33;64.73
77693;SHT31;66984;47.404;18.836;2023-02-08T04:44:08;0.36;64.67
77693;SHT31;66984;47.404;18.836;2023-02-08T04:45:10;0.37;64.42
77693;SHT31;66984;47.404;18.836;2023-02-08T04:46:13;0.38;64.05
77693;SHT31;66984;47.404;18.836;2023-02-08T04:47:16;0.40;63.94
77693;SHT31;66984;47.404;18.836;2023-02-08T04:48:19;0.41;64.10
77693;SHT31;66984;47.404;18.836;2023-02-08T04:49:22;0.38;63.91
77693;SHT31;66984;47.404;18.836;2023-02-08T04:50:24;0.41;64.06
77693;SHT31;66984;47.404;18.836;2023-02-08T04:51:27;0.40;64.14
77693;SHT31;66984;47.404;18.836;2023-02-08T04:52:30;0.40;64.13
77693;SHT31;66984;47.404;18.836;2023-02-08T04:53:33;0.43;64.03
77693;SHT31;66984;47.404;18.836;2023-02-08T04:54:36;0.45;64.03
77693;SHT31;66984;47.404;18.836;2023-02-08T04:55:41;0.44;63.95
77693;SHT31;66984;47.404;18.836;2023-02-08T04:56:43;0.48;64.08
77693;SHT31;66984;47.404;18.836;2023-02-08T04:57:46;0.47;64.11
77693;SHT31;66984;47.404;18.836;2023-02-08T04:58:49;0.47;64.30
77693;SHT31;66984;47.404;18.836;2023-02-08T04:59:51;0.48;64.27
77693;SHT31;66984;47.404;18.836;2023-02-08T05:00:54;0.47;64.31
77693;SHT31;66984;47.404;18.836;2023-02-08T05:01:57;0.50;64.34
77693;SHT31;66984;47.404;18.836;2023-02-08T05:03:00;0.51;64.30
77693;SHT31;66984;47.404;18.836;2023-02-08T05:04:02;0.50;64.28
77693;SHT31;66984;47.404;18.836;2023-02-08T05:05:05;0.43;64.00
77693;SHT31;66984;47.404;18.836;2023-02-08T05:06:08;0.41;64.43
77693;SHT31;66984;47.404;18.836;2023-02-08T05:07:11;0.43;64.74
77693;SHT31;66984;47.404;18.836;2023-02-08T05:08:13;0.44;64.80
77693;SHT31;66984;47.404;18.836;2023-02-08T05:09:16;0.43;64.67
77693;SHT31;66984;47.404;18.836;2023-02-08T05:10:19;0.40;64.75
77693;SHT31;66984;47.404;18.836;2023-02-08T05:11:23;0.43;64.82
77693;SHT31;66984;47.404;18.836;2023-02-08T05:12:26;0.41;64.83
77693;SHT31;66984;47.404;18.836;2023-02-08T05:13:28;0.34;64.76
77693;SHT31;66984;47.404;18.836;2023-02-08T05:14:31;0.36;64.80
77693;SHT31;66984;47.404;18.836;2023-02-08T05:15:34;0.38;64.83
77693;SHT31;66984;47.404;18.836;2023-02-08T05:16:36;0.37;64.95
77693;SHT31;66984;47.404;18.836;2023-02-08T05:17:39;0.38;65.42
77693;SHT31;66984;47.404;18.836;2023-02-08T05:18:42;0.36;65.08
77693;SHT31;66984;47.404;18.836;2023-02-08T05:19:45;0.37;65.18
77693;SHT31;66984;47.404;18.836;2023-02-08T05:20:59;0.37;65.01
77693;SHT31;66984;47.404;18.836;2023-02-08T05:22:02;0.34;64.97
77693;SHT31;66984;47.404;18.836;2023-02-08T05:23:05;0.37;65.13
77693;SHT31;66984;47.404;18.836;2023-02-08T05:24:07;0.36;65.39
77693;SHT31;66984;47.404;18.836;2023-02-08T05:25:13;0.34;65.54
77693;SHT31;66984;47.404;18.836;2023-02-08T05:26:16;0.36;65.28
77693;SHT31;66984;47.404;18.836;2023-02-08T05:27:19;0.36;65.22
77693;SHT31;66984;47.404;18.836;2023-02-08T05:28:22;0.31;65.22
77693;SHT31;66984;47.404;18.836;2023-02-08T05:29:25;0.30;65.28
77693;SHT31;66984;47.404;18.836;2023-02-08T05:30:27;0.33;65.45
77693;SHT31;66984;47.404;18.836;2023-02-08T05:31:30;0.30;65.52
77693;SHT31;66984;47.404;18.836;2023-02-08T05:32:33;0.31;65.73
77693;SHT31;66984;47.404;18.836;2023-02-08T05:33:36;0.34;65.60
77693;SHT31;66984;47.404;18.836;2023-02-08T05:34:39;0.37;65.64
77693;SHT31;66984;47.404;18.836;2023-02-08T05:35:43;0.36;65.63
77693;SHT31;66984;47.404;18.836;2023-02-08T05:36:46;0.38;65.46
77693;SHT31;66984;47.404;18.836;2023-02-08T05:37:49;0.36;65.43
77693;SHT31;66984;47.404;18.836;2023-02-08T05:38:51;0.40;65.53
77693;SHT31;66984;47.404;18.836;2023-02-08T05:39:55;0.38;65.47
77693;SHT31;66984;47.404;18.836;2023-02-08T05:40:57;0.41;65.69
77693;SHT31;66984;47.404;18.836;2023-02-08T05:42:00;0.41;65.53
77693;SHT31;66984;47.404;18.836;2023-02-08T05:43:03;0.43;65.42
77693;SHT31;66984;47.404;18.836;2023-02-08T05:44:05;0.40;65.35
77693;SHT31;66984;47.404;18.836;2023-02-08T05:45:08;0.43;65.29
77693;SHT31;66984;47.404;18.836;2023-02-08T05:46:12;0.43;65.28
77693;SHT31;66984;47.404;18.836;2023-02-08T05:47:15;0.45;65.20
77693;SHT31;66984;47.404;18.836;2023-02-08T05:48:18;0.44;65.19
77693;SHT31;66984;47.404;18.836;2023-02-08T05:49:21;0.38;65.26
77693;SHT31;66984;47.404;18.836;2023-02-08T05:50:24;0.41;65.18
77693;SHT31;66984;47.404;18.836;2023-02-08T05:51:27;0.40;65.10
77693;SHT31;66984;47.404;18.836;2023-02-08T05:52:29;0.38;65.05
77693;SHT31;66984;47.404;18.836;2023-02-08T05:53:32;0.43;65.05
77693;SHT31;66984;47.404;18.836;2023-02-08T05:54:35;0.41;64.93
77693;SHT31;66984;47.404;18.836;2023-02-08T05:55:38;0.40;65.04
77693;SHT31;66984;47.404;18.836;2023-02-08T05:56:41;0.41;64.85
77693;SHT31;66984;47.404;18.836;2023-02-08T05:57:44;0.41;64.74
77693;SHT31;66984;47.404;18.836;2023-02-08T05:58:46;0.37;65.06
77693;SHT31;66984;47.404;18.836;2023-02-08T05:59:49;0.37;64.99
77693;SHT31;66984;47.404;18.836;2023-02-08T06:00:52;0.37;64.88
77693;SHT31;66984;47.404;18.836;2023-02-08T06:01:55;0.33;64.72
77693;SHT31;66984;47.404;18.836;2023-02-08T06:02:57;0.36;64.68
77693;SHT31;66984;47.404;18.836;2023-02-08T06:04:00;0.31;64.67
77693;SHT31;66984;47.404;18.836;2023-02-08T06:05:03;0.31;64.74
77693;SHT31;66984;47.404;18.836;2023-02-08T06:06:07;0.33;64.78
77693;SHT31;66984;47.404;18.836;2023-02-08T06:07:12;0.28;64.57
77693;SHT31;66984;47.404;18.836;2023-02-08T06:08:15;0.27;64.56
77693;SHT31;66984;47.404;18.836;2023-02-08T06:09:17;0.27;64.63
77693;SHT31;66984;47.404;18.836;2023-02-08T06:10:20;0.28;64.52
77693;SHT31;66984;47.404;18.836;2023-02-08T06:11:23;0.28;64.61
77693;SHT31;66984;47.404;18.836;2023-02-08T06:12:25;0.28;64.58
77693;SHT31;66984;47.404;18.836;2023-02-08T06:13:28;0.28;64.41
77693;SHT31;66984;47.404;18.836;2023-02-08T06:14:31;0.27;64.45
77693;SHT31;66984;47.404;18.836;2023-02-08T06:15:33;0.27;64.47
77693;SHT31;66984;47.404;18.836;2023-02-08T06:16:36;0.23;64.59
77693;SHT31;66984;47.404;18.836;2023-02-08T06:17:39;0.23;64.71
77693;SHT31;66984;47.404;18.836;2023-02-08T06:18:42;0.23;64.60
77693;SHT31;66984;47.404;18.836;2023-02-08T06:19:44;0.24;64.44
77693;SHT31;66984;47.404;18.836;2023-02-08T06:20:47;0.21;64.79
77693;SHT31;66984;47.404;18.836;2023-02-08T06:21:50;0.23;64.62
77693;SHT31;66984;47.404;18.836;2023-02-08T06:22:53;0.20;64.59
77693;SHT31;66984;47.404;18.836;2023-02-08T06:23:56;0.17;64.76
77693;SHT31;66984;47.404;18.836;2023-02-08T06:24:59;0.17;64.87
77693;SHT31;66984;47.404;18.836;2023-02-08T06:26:02;0.16;64.93
77693;SHT31;66984;47.404;18.836;2023-02-08T06:27:05;0.16;64.96
77693;SHT31;66984;47.404;18.836;2023-02-08T06:28:07;0.17;64.84
77693;SHT31;66984;47.404;18.836;2023-02-08T06:29:12;0.18;64.72
77693;SHT31;66984;47.404;18.836;2023-02-08T06:30:15;0.23;64.46
77693;SHT31;66984;47.404;18.836;2023-02-08T06:31:18;0.18;64.54
77693;SHT31;66984;47.404;18.836;2023-02-08T06:32:20;0.18;64.52
77693;SHT31;66984;47.404;18.836;2023-02-08T06:33:23;0.18;64.57
77693;SHT31;66984;47.404;18.836;2023-02-08T06:34:26;0.18;64.63
77693;SHT31;66984;47.404;18.836;2023-02-08T06:35:29;0.23;64.46
77693;SHT31;66984;47.404;18.836;2023-02-08T06:36:32;0.20;64.38
77693;SHT31;66984;47.404;18.836;2023-02-08T06:37:35;0.24;64.40
77693;SHT31;66984;47.404;18.836;2023-02-08T06:38:38;0.21;64.60
77693;SHT31;66984;47.404;18.836;2023-02-08T06:39:40;0.21;64.66
77693;SHT31;66984;47.404;18.836;2023-02-08T06:40:46;0.20;64.71
77693;SHT31;66984;47.404;18.836;2023-02-08T06:41:48;0.23;64.53
77693;SHT31;66984;47.404;18.836;2023-02-08T06:42:51;0.24;64.37
77693;SHT31;66984;47.404;18.836;2023-02-08T06:43:54;0.24;64.46
77693;SHT31;66984;47.404;18.836;2023-02-08T06:45:00;0.21;64.56
77693;SHT31;66984;47.404;18.836;2023-02-08T06:46:03;0.25;64.51
77693;SHT31;66984;47.404;18.836;2023-02-08T06:47:06;0.24;64.63
77693;SHT31;66984;47.404;18.836;2023-02-08T06:48:09;0.28;64.47
77693;SHT31;66984;47.404;18.836;2023-02-08T06:49:11;0.25;64.28
77693;SHT31;66984;47.404;18.836;2023-02-08T06:50:14;0.25;64.45
77693;SHT31;66984;47.404;18.836;2023-02-08T06:51:17;0.27;64.39
77693;SHT31;66984;47.404;18.836;2023-02-08T06:52:20;0.27;64.28
77693;SHT31;66984;47.404;18.836;2023-02-08T06:53:23;0.28;64.27
77693;SHT31;66984;47.404;18.836;2023-02-08T06:54:26;0.28;64.24
77693;SHT31;66984;47.404;18.836;2023-02-08T06:55:29;0.31;64.24
77693;SHT31;66984;47.404;18.836;2023-02-08T06:56:32;0.30;64.28
77693;SHT31;66984;47.404;18.836;2023-02-08T06:57:34;0.33;64.26
77693;SHT31;66984;47.404;18.836;2023-02-08T06:58:37;0.34;63.99
77693;SHT31;66984;47.404;18.836;2023-02-08T06:59:41;0.40;63.80
77693;SHT31;66984;47.404;18.836;2023-02-08T07:00:43;0.40;63.80
77693;SHT31;66984;47.404;18.836;2023-02-08T07:01:49;0.40;63.83
77693;SHT31;66984;47.404;18.836;2023-02-08T07:02:52;0.38;63.92
77693;SHT31;66984;47.404;18.836;2023-02-08T07:03:55;0.43;63.86
77693;SHT31;66984;47.404;18.836;2023-02-08T07:04:57;0.45;63.85
77693;SHT31;66984;47.404;18.836;2023-02-08T07:06:00;0.44;63.61
77693;SHT31;66984;47.404;18.836;2023-02-08T07:07:06;0.48;63.70
77693;SHT31;66984;47.404;18.836;2023-02-08T07:08:09;0.48;63.64
77693;SHT31;66984;47.404;18.836;2023-02-08T07:09:11;0.51;63.84
77693;SHT31;66984;47.404;18.836;2023-02-08T07:10:15;0.53;63.71
77693;SHT31;66984;47.404;18.836;2023-02-08T07:11:18;0.54;64.02
77693;SHT31;66984;47.404;18.836;2023-02-08T07:12:22;0.53;64.14
77693;SHT31;66984;47.404;18.836;2023-02-08T07:13:24;0.54;63.90
77693;SHT31;66984;47.404;18.836;2023-02-08T07:14:27;0.58;63.75
77693;SHT31;66984;47.404;18.836;2023-02-08T07:15:30;0.62;63.52
77693;SHT31;66984;47.404;18.836;2023-02-08T07:16:33;0.64;63.60
77693;SHT31;66984;47.404;18.836;2023-02-08T07:17:36;0.64;63.59
77693;SHT31;66984;47.404;18.836;2023-02-08T07:18:38;0.66;63.43
77693;SHT31;66984;47.404;18.836;2023-02-08T07:19:41;0.69;63.49
77693;SHT31;66984;47.404;18.836;2023-02-08T07:20:44;0.72;63.42
77693;SHT31;66984;47.404;18.836;2023-02-08T07:21:46;0.72;63.42
77693;SHT31;66984;47.404;18.836;2023-02-08T07:22:49;0.71;63.69
77693;SHT31;66984;47.404;18.836;2023-02-08T07:23:52;0.76;63.94
77693;SHT31;66984;47.404;18.836;2023-02-08T07:24:54;0.76;63.62
77693;SHT31;66984;47.404;18.836;2023-02-08T07:25:58;0.78;63.61